sensor_id;sensor_type;location;lat;lon;timestamp;P1;durP1;ratioP1;P2;durP2;ratioP2
2884;SDS011;54691;48.262;11.586;2023-06-14T00:05:47;5.87;;;2.20;;
2884;SDS011;54691;48.262;11.586;2023-06-14T00:12:45;7.03;;;1.82;;
2884;SDS011;54691;48.262;11.586;2023-06-14T00:19:43;4.20;;;1.98;;
2884;SDS011;54691;48.262;11.586;2023-06-14T00:26:42;2.52;;;1.60;;
2884;SDS011;54691;48.262;11.586;2023-06-14T00:33:39;5.78;;;2.50;;
2884;SDS011;54691;48.262;11.586;2023-06-14T00:40:36;8.10;;;2.52;;
2884;SDS011;54691;48.262;11.586;2023-06-14T00:47:33;4.60;;;2.35;;
2884;SDS011;54691;48.262;11.586;2023-06-14T00:54:31;6.78;;;2.45;;
2884;SDS011;54691;48.262;11.586;2023-06-14T01:01:29;4.47;;;2.55;;
2884;SDS011;54691;48.262;11.586;2023-06-14T01:08:36;4.15;;;2.35;;
2884;SDS011;54691;48.262;11.586;2023-06-14T01:15:31;5.25;;;2.80;;
2884;SDS011;54691;48.262;11.586;2023-06-14T01:22:29;3.22;;;2.15;;
2884;SDS011;54691;48.262;11.586;2023-06-14T01:29:27;5.30;;;2.27;;
2884;SDS011;54691;48.262;11.586;2023-06-14T01:36:26;4.03;;;1.98;;
2884;SDS011;54691;48.262;11.586;2023-06-14T01:43:24;3.72;;;2.27;;
2884;SDS011;54691;48.262;11.586;2023-06-14T01:50:23;5.45;;;2.47;;
2884;SDS011;54691;48.262;11.586;2023-06-14T01:57:20;4.47;;;2.55;;
2884;SDS011;54691;48.262;11.586;2023-06-14T02:04:18;4.58;;;2.40;;
2884;SDS011;54691;48.262;11.586;2023-06-14T02:11:15;13.75;;;2.85;;
2884;SDS011;54691;48.262;11.586;2023-06-14T02:18:13;5.87;;;3.00;;
2884;SDS011;54691;48.262;11.586;2023-06-14T02:25:10;9.23;;;2.98;;
2884;SDS011;54691;48.262;11.586;2023-06-14T02:32:07;8.23;;;2.83;;
2884;SDS011;54691;48.262;11.586;2023-06-14T02:39:05;7.50;;;2.95;;
2884;SDS011;54691;48.262;11.586;2023-06-14T02:46:02;7.60;;;2.60;;
2884;SDS011;54691;48.262;11.586;2023-06-14T02:52:59;7.00;;;2.60;;
2884;SDS011;54691;48.262;11.586;2023-06-14T02:59:58;3.98;;;2.52;;
2884;SDS011;54691;48.262;11.586;2023-06-14T03:06:55;9.35;;;3.08;;
2884;SDS011;54691;48.262;11.586;2023-06-14T03:13:54;15.35;;;3.15;;
2884;SDS011;54691;48.262;11.586;2023-06-14T03:20:54;8.73;;;2.17;;
2884;SDS011;54691;48.262;11.586;2023-06-14T03:27:55;6.08;;;2.60;;
2884;SDS011;54691;48.262;11.586;2023-06-14T03:34:52;9.85;;;2.85;;
2884;SDS011;54691;48.262;11.586;2023-06-14T03:41:49;4.97;;;2.47;;
2884;SDS011;54691;48.262;11.586;2023-06-14T03:48:46;8.18;;;2.33;;
2884;SDS011;54691;48.262;11.586;2023-06-14T03:55:44;8.43;;;3.33;;
2884;SDS011;54691;48.262;11.586;2023-06-14T04:02:41;4.67;;;2.58;;
2884;SDS011;54691;48.262;11.586;2023-06-14T04:09:40;7.03;;;2.77;;
2884;SDS011;54691;48.262;11.586;2023-06-14T04:16:38;14.35;;;2.98;;
2884;SDS011;54691;48.262;11.586;2023-06-14T04:23:37;7.22;;;3.35;;
2884;SDS011;54691;48.262;11.586;2023-06-14T04:30:34;8.55;;;3.37;;
2884;SDS011;54691;48.262;11.586;2023-06-14T04:37:33;10.95;;;3.37;;
2884;SDS011;54691;48.262;11.586;2023-06-14T04:44:30;6.20;;;2.95;;
2884;SDS011;54691;48.262;11.586;2023-06-14T04:51:27;7.30;;;3.00;;
2884;SDS011;54691;48.262;11.586;2023-06-14T04:58:26;5.58;;;2.72;;
2884;SDS011;54691;48.262;11.586;2023-06-14T05:05:24;9.53;;;2.87;;
2884;SDS011;54691;48.262;11.586;2023-06-14T05:12:21;10.35;;;3.08;;
2884;SDS011;54691;48.262;11.586;2023-06-14T05:19:19;8.48;;;3.10;;
2884;SDS011;54691;48.262;11.586;2023-06-14T05:26:19;11.65;;;3.22;;
2884;SDS011;54691;48.262;11.586;2023-06-14T05:33:17;8.63;;;3.08;;
2884;SDS011;54691;48.262;11.586;2023-06-14T05:40:14;8.80;;;3.00;;
2884;SDS011;54691;48.262;11.586;2023-06-14T05:47:12;6.75;;;2.85;;
2884;SDS011;54691;48.262;11.586;2023-06-14T05:54:09;7.28;;;3.17;;
2884;SDS011;54691;48.262;11.586;2023-06-14T06:01:06;7.62;;;2.70;;
2884;SDS011;54691;48.262;11.586;2023-06-14T06:08:03;4.90;;;2.65;;
2884;SDS011;54691;48.262;11.586;2023-06-14T06:15:01;7.03;;;3.58;;
2884;SDS011;54691;48.262;11.586;2023-06-14T06:21:58;5.40;;;2.92;;
2884;SDS011;54691;48.262;11.586;2023-06-14T06:28:55;6.67;;;2.58;;
2884;SDS011;54691;48.262;11.586;2023-06-14T06:35:53;6.12;;;2.70;;
2884;SDS011;54691;48.262;11.586;2023-06-14T06:42:50;6.78;;;2.72;;
2884;SDS011;54691;48.262;11.586;2023-06-14T06:49:47;9.95;;;2.60;;
2884;SDS011;54691;48.262;11.586;2023-06-14T06:56:46;7.53;;;2.98;;
2884;SDS011;54691;48.262;11.586;2023-06-14T07:03:43;8.93;;;2.35;;
2884;SDS011;54691;48.262;11.586;2023-06-14T07:10:40;5.08;;;2.60;;
2884;SDS011;54691;48.262;11.586;2023-06-14T07:17:37;6.78;;;2.95;;
2884;SDS011;54691;48.262;11.586;2023-06-14T07:24:34;12.58;;;3.30;;
2884;SDS011;54691;48.262;11.586;2023-06-14T07:31:32;4.75;;;2.33;;
2884;SDS011;54691;48.262;11.586;2023-06-14T07:38:29;4.22;;;2.60;;
2884;SDS011;54691;48.262;11.586;2023-06-14T07:45:26;3.75;;;1.95;;
2884;SDS011;54691;48.262;11.586;2023-06-14T07:52:23;4.47;;;2.08;;
2884;SDS011;54691;48.262;11.586;2023-06-14T07:59:20;4.00;;;2.40;;
2884;SDS011;54691;48.262;11.586;2023-06-14T08:06:19;3.85;;;1.98;;
2884;SDS011;54691;48.262;11.586;2023-06-14T08:13:16;4.53;;;1.95;;
2884;SDS011;54691;48.262;11.586;2023-06-14T08:20:13;4.20;;;2.30;;
2884;SDS011;54691;48.262;11.586;2023-06-14T08:27:11;6.42;;;2.10;;
2884;SDS011;54691;48.262;11.586;2023-06-14T08:34:10;2.65;;;1.92;;
2884;SDS011;54691;48.262;11.586;2023-06-14T08:41:08;4.25;;;1.87;;
2884;SDS011;54691;48.262;11.586;2023-06-14T08:48:07;7.12;;;2.55;;
2884;SDS011;54691;48.262;11.586;2023-06-14T08:55:05;5.05;;;1.92;;
2884;SDS011;54691;48.262;11.586;2023-06-14T09:05:40;3.62;;;2.05;;
2884;SDS011;54691;48.262;11.586;2023-06-14T09:12:43;3.98;;;1.92;;
2884;SDS011;54691;48.262;11.586;2023-06-14T09:19:39;4.22;;;2.12;;
2884;SDS011;54691;48.262;11.586;2023-06-14T09:30:11;4.83;;;1.92;;
2884;SDS011;54691;48.262;11.586;2023-06-14T09:37:13;3.22;;;2.05;;
2884;SDS011;54691;48.262;11.586;2023-06-14T09:44:10;9.03;;;2.00;;
2884;SDS011;54691;48.262;11.586;2023-06-14T09:51:13;6.60;;;2.37;;
2884;SDS011;54691;48.262;11.586;2023-06-14T09:58:07;4.42;;;1.98;;
2884;SDS011;54691;48.262;11.586;2023-06-14T10:05:08;3.37;;;2.02;;
2884;SDS011;54691;48.262;11.586;2023-06-14T10:12:06;3.37;;;2.05;;
2884;SDS011;54691;48.262;11.586;2023-06-14T10:19:17;12.10;;;2.42;;
2884;SDS011;54691;48.262;11.586;2023-06-14T10:22:50;6.00;;;1.85;;
2884;SDS011;54691;48.262;11.586;2023-06-14T10:33:19;3.60;;;1.77;;
2884;SDS011;54691;48.262;11.586;2023-06-14T10:40:29;4.37;;;1.80;;
2884;SDS011;54691;48.262;11.586;2023-06-14T10:47:43;2.45;;;1.80;;
2884;SDS011;54691;48.262;11.586;2023-06-14T10:58:15;7.33;;;2.02;;
2884;SDS011;54691;48.262;11.586;2023-06-14T11:05:15;10.35;;;2.22;;
2884;SDS011;54691;48.262;11.586;2023-06-14T11:12:14;5.65;;;2.10;;
2884;SDS011;54691;48.262;11.586;2023-06-14T11:19:12;6.15;;;2.17;;
2884;SDS011;54691;48.262;11.586;2023-06-14T11:26:09;3.17;;;1.90;;
2884;SDS011;54691;48.262;11.586;2023-06-14T11:33:09;4.85;;;1.90;;
2884;SDS011;54691;48.262;11.586;2023-06-14T11:40:07;5.35;;;2.37;;
2884;SDS011;54691;48.262;11.586;2023-06-14T11:47:05;9.35;;;2.00;;
2884;SDS011;54691;48.262;11.586;2023-06-14T11:54:03;9.93;;;1.95;;
2884;SDS011;54691;48.262;11.586;2023-06-14T12:01:02;5.55;;;1.92;;
2884;SDS011;54691;48.262;11.586;2023-06-14T12:08:00;6.35;;;1.77;;
2884;SDS011;54691;48.262;11.586;2023-06-14T12:14:58;4.70;;;1.80;;
2884;SDS011;54691;48.262;11.586;2023-06-14T12:21:55;3.15;;;2.20;;
2884;SDS011;54691;48.262;11.586;2023-06-14T12:32:30;9.88;;;2.33;;
2884;SDS011;54691;48.262;11.586;2023-06-14T12:39:27;6.90;;;2.10;;
2884;SDS011;54691;48.262;11.586;2023-06-14T12:46:25;5.92;;;1.92;;
2884;SDS011;54691;48.262;11.586;2023-06-14T12:53:25;8.15;;;2.17;;
2884;SDS011;54691;48.262;11.586;2023-06-14T13:00:22;3.50;;;2.15;;
2884;SDS011;54691;48.262;11.586;2023-06-14T13:07:21;4.22;;;2.00;;
2884;SDS011;54691;48.262;11.586;2023-06-14T13:14:18;5.20;;;2.00;;
2884;SDS011;54691;48.262;11.586;2023-06-14T13:21:16;8.28;;;2.20;;
2884;SDS011;54691;48.262;11.586;2023-06-14T13:28:13;6.28;;;2.37;;
2884;SDS011;54691;48.262;11.586;2023-06-14T13:35:10;4.78;;;1.72;;
2884;SDS011;54691;48.262;11.586;2023-06-14T13:42:07;3.75;;;2.02;;
2884;SDS011;54691;48.262;11.586;2023-06-14T13:49:04;5.47;;;2.47;;
2884;SDS011;54691;48.262;11.586;2023-06-14T13:56:02;5.85;;;1.92;;
2884;SDS011;54691;48.262;11.586;2023-06-14T14:03:04;4.37;;;1.85;;
2884;SDS011;54691;48.262;11.586;2023-06-14T14:10:03;5.80;;;2.05;;
2884;SDS011;54691;48.262;11.586;2023-06-14T14:20:35;5.08;;;2.35;;
2884;SDS011;54691;48.262;11.586;2023-06-14T14:27:34;5.17;;;2.25;;
2884;SDS011;54691;48.262;11.586;2023-06-14T14:34:34;5.00;;;1.92;;
2884;SDS011;54691;48.262;11.586;2023-06-14T14:41:35;5.67;;;1.95;;
2884;SDS011;54691;48.262;11.586;2023-06-14T14:48:40;3.20;;;2.22;;
2884;SDS011;54691;48.262;11.586;2023-06-14T14:55:33;4.40;;;2.00;;
2884;SDS011;54691;48.262;11.586;2023-06-14T15:02:31;6.08;;;1.90;;
2884;SDS011;54691;48.262;11.586;2023-06-14T15:09:29;5.90;;;2.10;;
2884;SDS011;54691;48.262;11.586;2023-06-14T15:16:30;3.83;;;2.08;;
2884;SDS011;54691;48.262;11.586;2023-06-14T15:23:27;2.10;;;1.90;;
2884;SDS011;54691;48.262;11.586;2023-06-14T15:34:01;7.60;;;2.42;;
2884;SDS011;54691;48.262;11.586;2023-06-14T15:41:02;3.80;;;2.05;;
2884;SDS011;54691;48.262;11.586;2023-06-14T15:51:41;7.97;;;2.55;;
2884;SDS011;54691;48.262;11.586;2023-06-14T15:58:37;2.77;;;2.02;;
2884;SDS011;54691;48.262;11.586;2023-06-14T16:09:11;5.55;;;2.33;;
2884;SDS011;54691;48.262;11.586;2023-06-14T16:16:12;4.65;;;2.12;;
2884;SDS011;54691;48.262;11.586;2023-06-14T16:26:49;7.85;;;2.60;;
2884;SDS011;54691;48.262;11.586;2023-06-14T16:33:45;3.65;;;2.20;;
2884;SDS011;54691;48.262;11.586;2023-06-14T16:40:43;6.30;;;3.83;;
2884;SDS011;54691;48.262;11.586;2023-06-14T16:47:42;5.42;;;2.47;;
2884;SDS011;54691;48.262;11.586;2023-06-14T16:54:39;2.20;;;1.75;;
2884;SDS011;54691;48.262;11.586;2023-06-14T17:01:36;4.40;;;1.90;;
2884;SDS011;54691;48.262;11.586;2023-06-14T17:08:33;3.62;;;2.30;;
2884;SDS011;54691;48.262;11.586;2023-06-14T17:15:30;3.33;;;2.00;;
2884;SDS011;54691;48.262;11.586;2023-06-14T17:22:30;3.62;;;2.40;;
2884;SDS011;54691;48.262;11.586;2023-06-14T17:29:26;9.43;;;2.10;;
2884;SDS011;54691;48.262;11.586;2023-06-14T17:36:23;3.87;;;2.02;;
2884;SDS011;54691;48.262;11.586;2023-06-14T17:43:20;4.58;;;2.20;;
2884;SDS011;54691;48.262;11.586;2023-06-14T17:50:19;8.40;;;2.47;;
2884;SDS011;54691;48.262;11.586;2023-06-14T17:57:16;6.28;;;2.20;;
2884;SDS011;54691;48.262;11.586;2023-06-14T18:04:13;16.45;;;2.10;;
2884;SDS011;54691;48.262;11.586;2023-06-14T18:11:10;5.53;;;2.02;;
2884;SDS011;54691;48.262;11.586;2023-06-14T18:18:07;8.38;;;1.90;;
2884;SDS011;54691;48.262;11.586;2023-06-14T18:25:10;2.65;;;2.10;;
2884;SDS011;54691;48.262;11.586;2023-06-14T18:32:03;6.97;;;2.17;;
2884;SDS011;54691;48.262;11.586;2023-06-14T18:39:00;3.33;;;2.00;;
2884;SDS011;54691;48.262;11.586;2023-06-14T18:45:58;3.30;;;2.20;;
2884;SDS011;54691;48.262;11.586;2023-06-14T18:52:55;6.97;;;1.85;;
2884;SDS011;54691;48.262;11.586;2023-06-14T18:59:56;6.87;;;2.35;;
2884;SDS011;54691;48.262;11.586;2023-06-14T19:06:53;5.62;;;2.15;;
2884;SDS011;54691;48.262;11.586;2023-06-14T19:13:50;4.75;;;1.92;;
2884;SDS011;54691;48.262;11.586;2023-06-14T19:20:47;5.25;;;2.10;;
2884;SDS011;54691;48.262;11.586;2023-06-14T19:27:47;5.20;;;2.22;;
2884;SDS011;54691;48.262;11.586;2023-06-14T19:34:45;6.17;;;2.42;;
2884;SDS011;54691;48.262;11.586;2023-06-14T19:41:42;3.87;;;2.12;;
2884;SDS011;54691;48.262;11.586;2023-06-14T19:48:39;9.03;;;2.77;;
2884;SDS011;54691;48.262;11.586;2023-06-14T19:55:36;7.78;;;2.85;;
2884;SDS011;54691;48.262;11.586;2023-06-14T20:02:33;4.78;;;2.15;;
2884;SDS011;54691;48.262;11.586;2023-06-14T20:09:32;6.00;;;2.72;;
2884;SDS011;54691;48.262;11.586;2023-06-14T20:16:30;12.07;;;3.67;;
2884;SDS011;54691;48.262;11.586;2023-06-14T20:23:27;5.50;;;2.47;;
2884;SDS011;54691;48.262;11.586;2023-06-14T20:30:24;10.85;;;3.45;;
2884;SDS011;54691;48.262;11.586;2023-06-14T20:37:22;7.10;;;3.50;;
2884;SDS011;54691;48.262;11.586;2023-06-14T20:44:20;9.03;;;3.02;;
2884;SDS011;54691;48.262;11.586;2023-06-14T20:51:17;13.00;;;5.45;;
2884;SDS011;54691;48.262;11.586;2023-06-14T20:58:14;8.80;;;3.75;;
2884;SDS011;54691;48.262;11.586;2023-06-14T21:05:12;4.95;;;2.40;;
2884;SDS011;54691;48.262;11.586;2023-06-14T21:12:09;6.87;;;4.00;;
2884;SDS011;54691;48.262;11.586;2023-06-14T21:19:07;6.72;;;2.55;;
2884;SDS011;54691;48.262;11.586;2023-06-14T21:26:04;9.85;;;4.80;;
2884;SDS011;54691;48.262;11.586;2023-06-14T21:33:04;26.37;;;4.58;;
2884;SDS011;54691;48.262;11.586;2023-06-14T21:40:02;12.73;;;2.95;;
2884;SDS011;54691;48.262;11.586;2023-06-14T21:47:00;16.95;;;4.20;;
2884;SDS011;54691;48.262;11.586;2023-06-14T21:53:58;15.32;;;3.85;;
2884;SDS011;54691;48.262;11.586;2023-06-14T22:00:55;7.33;;;2.80;;
2884;SDS011;54691;48.262;11.586;2023-06-14T22:07:52;6.72;;;2.72;;
2884;SDS011;54691;48.262;11.586;2023-06-14T22:14:50;13.93;;;3.02;;
2884;SDS011;54691;48.262;11.586;2023-06-14T22:21:48;8.68;;;3.00;;
2884;SDS011;54691;48.262;11.586;2023-06-14T22:28:46;8.38;;;2.90;;
2884;SDS011;54691;48.262;11.586;2023-06-14T22:35:44;6.78;;;2.60;;
2884;SDS011;54691;48.262;11.586;2023-06-14T22:42:46;9.38;;;3.50;;
2884;SDS011;54691;48.262;11.586;2023-06-14T22:53:18;14.15;;;4.00;;
2884;SDS011;54691;48.262;11.586;2023-06-14T23:00:15;10.03;;;3.67;;
2884;SDS011;54691;48.262;11.586;2023-06-14T23:07:16;11.40;;;3.25;;
2884;SDS011;54691;48.262;11.586;2023-06-14T23:14:14;17.00;;;3.30;;
2884;SDS011;54691;48.262;11.586;2023-06-14T23:21:15;14.35;;;3.67;;
2884;SDS011;54691;48.262;11.586;2023-06-14T23:35:28;8.08;;;3.80;;
2884;SDS011;54691;48.262;11.586;2023-06-14T23:45:59;11.63;;;4.30;;
2884;SDS011;54691;48.262;11.586;2023-06-14T23:52:56;11.50;;;4.00;;
2884;SDS011;54691;48.262;11.586;2023-06-14T23:59:57;24.30;;;3.70;;
